« 令和元年度富山市総合防災訓練 富山市 2019/9/28 sat | トップページ | 令和元年度富山県総合防災訓練 入善町・黒部市・朝日町 2019/9/29 sun »

2019/09/28

定点 富山空港 2019/9/28 sat

本日は、富山市総合防災訓練が行われるので、いつもより早く河原へ

RJNT 272200Z 03004KT 9999 FEW050 BKN070 BKN080 22/20 Q1021

20190928_rjnt_00ja55an

20190928_rjnt_01ja55an

ANA312 RJNT-RJTT JA55AN B737-881

ここで防災訓練に転戦

令和元年度富山市総合防災訓練 富山市 2019/9/28 sat

RJNT 280100Z VRB02KT 9999 FEW040 SCT080 BKN090 25/21 Q1021

20190928_rjnt_10ja6768

訓練が終わって空港に戻ってくると、只今入庫中

20190928_rjnt_11ja9690

JA9690 AS332L AKF

20190928_rjnt_12ja9690

現場でお仕事の皆さん、お疲れ様でした。

20190928_rjnt_13b6908

20190928_rjnt_14b6908

CSN613 ZYTL-RJNT B-6908 A320-232

20190928_rjnt_15ja63an

20190928_rjnt_16ja63an

ANA315 RJTT-RJNT JA63AN B737-881

RJNT 280200Z 28003KT 210V330 9999 FEW040 SCT090 BKN110 25/21 Q1020

20190928_rjnt_17ja9690

きったないって、言っちゃダメよ! 一生懸命掃除してるんだから。

20190928_rjnt_18ja139t

防災訓練中に飛び立っていった警察さんが帰ってきた

20190928_rjnt_19ja139t

20190928_rjnt_20ja139t

JA139T AW139 富山蓮警察

20190928_rjnt_21ja139t

今日のお鼻とお尻

20190928_rjnt_22ja63an

20190928_rjnt_23ja63an

ANA1181 RJNT-RJCC JA63AN B737-881

20190928_rjnt_24b6908

20190928_rjnt_25b6908

CSN614 RJNT-ZYTL B-6908 A320-232

RJNT 280300Z VRB02KT 9999 FEW030 BKN080 BKN110 26/21 Q1020

この間にドクヘリミッションがあったのですが、チョット間に合わず。

20190928_rjnt_26b5260

20190928_rjnt_27b5260

CSH825 ZSPD-RJNT B-5260 B737-76D

これにて河原を離れて、チョット他の河原へ

RJNT 280400Z 25003KT 210V290 9999 FEW030 BKN080 BKN100 27/20 Q1019

20190928_yfushiki_30mcs681

小矢部川河口にやってきました。

20190928_yfushiki_31mcs681

海保ビル前に掃海艇MCS681「すがしま」

20190928_yfushiki_32mcs681

明日の富山県総合防災訓練に参加の予定

20190928_zshinminato_33pl04

「のりくら」さんは出港中 「やひこ」さんは停泊してました。

|

« 令和元年度富山市総合防災訓練 富山市 2019/9/28 sat | トップページ | 令和元年度富山県総合防災訓練 入善町・黒部市・朝日町 2019/9/29 sun »

富山空港」カテゴリの記事

海上自衛隊」カテゴリの記事

海上保安庁」カテゴリの記事

コメント

コメントを書く



(ウェブ上には掲載しません)


コメントは記事投稿者が公開するまで表示されません。



« 令和元年度富山市総合防災訓練 富山市 2019/9/28 sat | トップページ | 令和元年度富山県総合防災訓練 入善町・黒部市・朝日町 2019/9/29 sun »